sensor_id;sensor_type;location;lat;lon;timestamp;P1;durP1;ratioP1;P2;durP2;ratioP2
15077;SDS011;7638;49.760;8.646;2022-10-16T00:01:41;1.30;;;1.17;;
15077;SDS011;7638;49.760;8.646;2022-10-16T00:04:07;1.57;;;0.70;;
15077;SDS011;7638;49.760;8.646;2022-10-16T00:06:33;0.77;;;0.77;;
15077;SDS011;7638;49.760;8.646;2022-10-16T00:08:59;1.17;;;0.80;;
15077;SDS011;7638;49.760;8.646;2022-10-16T00:11:26;3.37;;;0.80;;
15077;SDS011;7638;49.760;8.646;2022-10-16T00:13:55;1.83;;;0.50;;
15077;SDS011;7638;49.760;8.646;2022-10-16T00:16:21;1.00;;;0.90;;
15077;SDS011;7638;49.760;8.646;2022-10-16T00:18:47;0.90;;;0.73;;
15077;SDS011;7638;49.760;8.646;2022-10-16T00:21:14;3.33;;;0.97;;
15077;SDS011;7638;49.760;8.646;2022-10-16T00:23:41;1.07;;;0.77;;
15077;SDS011;7638;49.760;8.646;2022-10-16T00:26:08;0.73;;;0.70;;
15077;SDS011;7638;49.760;8.646;2022-10-16T00:28:35;0.97;;;0.60;;
15077;SDS011;7638;49.760;8.646;2022-10-16T00:31:03;0.67;;;0.67;;
15077;SDS011;7638;49.760;8.646;2022-10-16T00:33:29;2.10;;;0.60;;
15077;SDS011;7638;49.760;8.646;2022-10-16T00:35:57;3.90;;;0.50;;
15077;SDS011;7638;49.760;8.646;2022-10-16T00:38:23;4.60;;;0.70;;
15077;SDS011;7638;49.760;8.646;2022-10-16T00:40:49;0.40;;;0.40;;
15077;SDS011;7638;49.760;8.646;2022-10-16T00:46:00;0.77;;;0.50;;
15077;SDS011;7638;49.760;8.646;2022-10-16T00:48:27;1.17;;;0.67;;
15077;SDS011;7638;49.760;8.646;2022-10-16T00:50:53;8.07;;;0.70;;
15077;SDS011;7638;49.760;8.646;2022-10-16T00:53:19;0.77;;;0.53;;
15077;SDS011;7638;49.760;8.646;2022-10-16T00:55:45;1.03;;;0.50;;
15077;SDS011;7638;49.760;8.646;2022-10-16T00:58:11;1.20;;;0.80;;
15077;SDS011;7638;49.760;8.646;2022-10-16T01:00:37;0.83;;;0.50;;
15077;SDS011;7638;49.760;8.646;2022-10-16T01:03:21;1.13;;;0.60;;
15077;SDS011;7638;49.760;8.646;2022-10-16T01:05:54;0.80;;;0.80;;
15077;SDS011;7638;49.760;8.646;2022-10-16T01:08:34;0.60;;;0.60;;
15077;SDS011;7638;49.760;8.646;2022-10-16T01:13:58;0.60;;;0.60;;
15077;SDS011;7638;49.760;8.646;2022-10-16T01:16:38;1.57;;;0.90;;
15077;SDS011;7638;49.760;8.646;2022-10-16T01:21:35;2.13;;;0.80;;
15077;SDS011;7638;49.760;8.646;2022-10-16T01:27:14;1.70;;;0.70;;
15077;SDS011;7638;49.760;8.646;2022-10-16T01:32:05;0.67;;;0.60;;
15077;SDS011;7638;49.760;8.646;2022-10-16T01:34:38;0.60;;;0.60;;
15077;SDS011;7638;49.760;8.646;2022-10-16T01:37:09;0.70;;;0.70;;
15077;SDS011;7638;49.760;8.646;2022-10-16T01:39:36;0.87;;;0.80;;
15077;SDS011;7638;49.760;8.646;2022-10-16T01:42:05;2.60;;;0.90;;
15077;SDS011;7638;49.760;8.646;2022-10-16T01:44:32;6.03;;;1.00;;
15077;SDS011;7638;49.760;8.646;2022-10-16T01:47:01;3.50;;;1.10;;
15077;SDS011;7638;49.760;8.646;2022-10-16T01:49:29;1.37;;;0.90;;
15077;SDS011;7638;49.760;8.646;2022-10-16T01:51:56;3.07;;;0.90;;
15077;SDS011;7638;49.760;8.646;2022-10-16T01:54:23;6.37;;;1.50;;
15077;SDS011;7638;49.760;8.646;2022-10-16T01:56:51;1.37;;;0.97;;
15077;SDS011;7638;49.760;8.646;2022-10-16T01:59:18;2.00;;;1.00;;
15077;SDS011;7638;49.760;8.646;2022-10-16T02:01:47;1.30;;;1.20;;
15077;SDS011;7638;49.760;8.646;2022-10-16T02:04:33;1.87;;;1.33;;
15077;SDS011;7638;49.760;8.646;2022-10-16T02:07:00;3.93;;;2.13;;
15077;SDS011;7638;49.760;8.646;2022-10-16T02:09:26;1.90;;;1.50;;
15077;SDS011;7638;49.760;8.646;2022-10-16T02:11:52;2.87;;;1.47;;
15077;SDS011;7638;49.760;8.646;2022-10-16T02:14:19;1.60;;;1.50;;
15077;SDS011;7638;49.760;8.646;2022-10-16T02:16:47;1.77;;;1.67;;
15077;SDS011;7638;49.760;8.646;2022-10-16T02:19:13;2.50;;;1.90;;
15077;SDS011;7638;49.760;8.646;2022-10-16T02:22:00;3.00;;;1.50;;
15077;SDS011;7638;49.760;8.646;2022-10-16T02:24:48;4.37;;;2.23;;
15077;SDS011;7638;49.760;8.646;2022-10-16T02:27:19;7.40;;;3.80;;
15077;SDS011;7638;49.760;8.646;2022-10-16T02:29:47;5.00;;;3.67;;
15077;SDS011;7638;49.760;8.646;2022-10-16T02:32:16;6.37;;;3.50;;
15077;SDS011;7638;49.760;8.646;2022-10-16T02:34:42;5.30;;;4.77;;
15077;SDS011;7638;49.760;8.646;2022-10-16T02:37:09;5.63;;;4.80;;
15077;SDS011;7638;49.760;8.646;2022-10-16T02:39:35;5.40;;;4.90;;
15077;SDS011;7638;49.760;8.646;2022-10-16T02:42:02;5.93;;;4.97;;
15077;SDS011;7638;49.760;8.646;2022-10-16T02:44:28;10.60;;;4.87;;
15077;SDS011;7638;49.760;8.646;2022-10-16T02:46:54;7.30;;;5.20;;
15077;SDS011;7638;49.760;8.646;2022-10-16T02:49:21;6.43;;;4.07;;
15077;SDS011;7638;49.760;8.646;2022-10-16T02:51:47;9.40;;;5.03;;
15077;SDS011;7638;49.760;8.646;2022-10-16T02:54:12;6.40;;;4.90;;
15077;SDS011;7638;49.760;8.646;2022-10-16T02:56:38;5.33;;;4.83;;
15077;SDS011;7638;49.760;8.646;2022-10-16T02:59:04;5.10;;;4.30;;
15077;SDS011;7638;49.760;8.646;2022-10-16T03:01:37;5.10;;;4.60;;
15077;SDS011;7638;49.760;8.646;2022-10-16T03:04:03;5.37;;;4.70;;
15077;SDS011;7638;49.760;8.646;2022-10-16T03:06:28;6.40;;;4.30;;
15077;SDS011;7638;49.760;8.646;2022-10-16T03:08:54;8.97;;;4.57;;
15077;SDS011;7638;49.760;8.646;2022-10-16T03:11:21;5.60;;;4.73;;
15077;SDS011;7638;49.760;8.646;2022-10-16T03:13:47;4.93;;;4.40;;
15077;SDS011;7638;49.760;8.646;2022-10-16T03:16:13;8.67;;;4.77;;
15077;SDS011;7638;49.760;8.646;2022-10-16T03:18:39;4.77;;;4.37;;
15077;SDS011;7638;49.760;8.646;2022-10-16T03:21:05;5.40;;;4.50;;
15077;SDS011;7638;49.760;8.646;2022-10-16T03:23:31;5.17;;;4.53;;
15077;SDS011;7638;49.760;8.646;2022-10-16T03:25:57;5.33;;;4.60;;
15077;SDS011;7638;49.760;8.646;2022-10-16T03:28:23;9.50;;;4.73;;
15077;SDS011;7638;49.760;8.646;2022-10-16T03:30:50;7.17;;;4.30;;
15077;SDS011;7638;49.760;8.646;2022-10-16T03:33:16;4.87;;;3.77;;
15077;SDS011;7638;49.760;8.646;2022-10-16T03:35:42;4.57;;;4.03;;
15077;SDS011;7638;49.760;8.646;2022-10-16T03:38:08;6.90;;;3.37;;
15077;SDS011;7638;49.760;8.646;2022-10-16T03:40:34;6.73;;;4.17;;
15077;SDS011;7638;49.760;8.646;2022-10-16T03:43:00;8.60;;;4.00;;
15077;SDS011;7638;49.760;8.646;2022-10-16T03:45:26;6.77;;;3.57;;
15077;SDS011;7638;49.760;8.646;2022-10-16T03:47:52;2.80;;;2.43;;
15077;SDS011;7638;49.760;8.646;2022-10-16T03:50:18;2.47;;;2.10;;
15077;SDS011;7638;49.760;8.646;2022-10-16T03:52:44;5.63;;;2.20;;
15077;SDS011;7638;49.760;8.646;2022-10-16T03:55:10;3.80;;;1.87;;
15077;SDS011;7638;49.760;8.646;2022-10-16T03:57:36;3.57;;;1.80;;
15077;SDS011;7638;49.760;8.646;2022-10-16T04:00:02;2.53;;;1.67;;
15077;SDS011;7638;49.760;8.646;2022-10-16T04:02:29;2.30;;;1.40;;
15077;SDS011;7638;49.760;8.646;2022-10-16T04:04:55;4.13;;;1.50;;
15077;SDS011;7638;49.760;8.646;2022-10-16T04:07:21;1.20;;;1.10;;
15077;SDS011;7638;49.760;8.646;2022-10-16T04:09:46;1.87;;;1.20;;
15077;SDS011;7638;49.760;8.646;2022-10-16T04:12:12;1.77;;;1.00;;
15077;SDS011;7638;49.760;8.646;2022-10-16T04:14:38;3.23;;;1.03;;
15077;SDS011;7638;49.760;8.646;2022-10-16T04:17:04;0.90;;;0.90;;
15077;SDS011;7638;49.760;8.646;2022-10-16T04:19:30;1.47;;;1.10;;
15077;SDS011;7638;49.760;8.646;2022-10-16T04:21:56;1.53;;;0.90;;
15077;SDS011;7638;49.760;8.646;2022-10-16T04:24:22;1.27;;;1.10;;
15077;SDS011;7638;49.760;8.646;2022-10-16T04:26:48;2.17;;;1.30;;
15077;SDS011;7638;49.760;8.646;2022-10-16T04:29:14;1.80;;;1.30;;
15077;SDS011;7638;49.760;8.646;2022-10-16T04:31:40;2.10;;;1.30;;
15077;SDS011;7638;49.760;8.646;2022-10-16T04:34:06;2.57;;;1.30;;
15077;SDS011;7638;49.760;8.646;2022-10-16T04:36:32;1.80;;;1.20;;
15077;SDS011;7638;49.760;8.646;2022-10-16T04:38:58;3.00;;;1.13;;
15077;SDS011;7638;49.760;8.646;2022-10-16T04:41:24;5.00;;;1.30;;
15077;SDS011;7638;49.760;8.646;2022-10-16T04:43:50;2.30;;;1.20;;
15077;SDS011;7638;49.760;8.646;2022-10-16T04:46:16;2.33;;;1.47;;
15077;SDS011;7638;49.760;8.646;2022-10-16T04:48:42;2.60;;;1.27;;
15077;SDS011;7638;49.760;8.646;2022-10-16T04:51:08;2.47;;;1.17;;
15077;SDS011;7638;49.760;8.646;2022-10-16T04:53:34;5.47;;;1.53;;
15077;SDS011;7638;49.760;8.646;2022-10-16T04:56:00;4.70;;;1.40;;
15077;SDS011;7638;49.760;8.646;2022-10-16T04:58:26;4.23;;;1.33;;
15077;SDS011;7638;49.760;8.646;2022-10-16T05:00:52;2.50;;;1.40;;
15077;SDS011;7638;49.760;8.646;2022-10-16T05:03:18;1.90;;;1.50;;
15077;SDS011;7638;49.760;8.646;2022-10-16T05:05:45;1.33;;;1.23;;
15077;SDS011;7638;49.760;8.646;2022-10-16T05:08:12;2.80;;;1.60;;
15077;SDS011;7638;49.760;8.646;2022-10-16T05:10:38;1.90;;;1.30;;
15077;SDS011;7638;49.760;8.646;2022-10-16T05:13:04;1.83;;;1.27;;
15077;SDS011;7638;49.760;8.646;2022-10-16T05:15:30;4.90;;;1.47;;
15077;SDS011;7638;49.760;8.646;2022-10-16T05:17:56;4.93;;;1.87;;
15077;SDS011;7638;49.760;8.646;2022-10-16T05:20:22;2.13;;;1.57;;
15077;SDS011;7638;49.760;8.646;2022-10-16T05:22:49;9.00;;;3.43;;
15077;SDS011;7638;49.760;8.646;2022-10-16T05:25:15;1.30;;;1.20;;
15077;SDS011;7638;49.760;8.646;2022-10-16T05:27:41;2.97;;;1.23;;
15077;SDS011;7638;49.760;8.646;2022-10-16T05:30:07;4.40;;;1.57;;
15077;SDS011;7638;49.760;8.646;2022-10-16T05:32:33;4.27;;;1.23;;
15077;SDS011;7638;49.760;8.646;2022-10-16T05:34:59;1.77;;;1.50;;
15077;SDS011;7638;49.760;8.646;2022-10-16T05:37:27;1.50;;;1.03;;
15077;SDS011;7638;49.760;8.646;2022-10-16T05:39:53;3.17;;;1.30;;
15077;SDS011;7638;49.760;8.646;2022-10-16T05:42:19;2.07;;;1.43;;
15077;SDS011;7638;49.760;8.646;2022-10-16T05:44:45;2.67;;;1.30;;
15077;SDS011;7638;49.760;8.646;2022-10-16T05:47:12;2.80;;;1.27;;
15077;SDS011;7638;49.760;8.646;2022-10-16T05:49:39;13.93;;;9.23;;
15077;SDS011;7638;49.760;8.646;2022-10-16T05:52:05;12.87;;;7.60;;
15077;SDS011;7638;49.760;8.646;2022-10-16T05:54:31;5.87;;;3.73;;
15077;SDS011;7638;49.760;8.646;2022-10-16T05:56:57;3.03;;;2.20;;
15077;SDS011;7638;49.760;8.646;2022-10-16T05:59:23;1.47;;;1.37;;
15077;SDS011;7638;49.760;8.646;2022-10-16T06:01:49;4.93;;;1.60;;
15077;SDS011;7638;49.760;8.646;2022-10-16T06:04:15;3.50;;;2.43;;
15077;SDS011;7638;49.760;8.646;2022-10-16T06:06:41;4.97;;;1.60;;
15077;SDS011;7638;49.760;8.646;2022-10-16T06:09:07;4.17;;;2.37;;
15077;SDS011;7638;49.760;8.646;2022-10-16T06:11:33;2.37;;;2.07;;
15077;SDS011;7638;49.760;8.646;2022-10-16T06:14:00;2.77;;;1.93;;
15077;SDS011;7638;49.760;8.646;2022-10-16T06:16:32;2.07;;;1.87;;
15077;SDS011;7638;49.760;8.646;2022-10-16T06:18:58;4.10;;;1.63;;
15077;SDS011;7638;49.760;8.646;2022-10-16T06:21:25;4.00;;;1.80;;
15077;SDS011;7638;49.760;8.646;2022-10-16T06:23:51;3.67;;;1.53;;
15077;SDS011;7638;49.760;8.646;2022-10-16T06:26:18;10.43;;;1.57;;
15077;SDS011;7638;49.760;8.646;2022-10-16T06:28:45;2.37;;;1.30;;
15077;SDS011;7638;49.760;8.646;2022-10-16T06:31:11;2.90;;;1.20;;
15077;SDS011;7638;49.760;8.646;2022-10-16T06:33:38;2.03;;;1.50;;
15077;SDS011;7638;49.760;8.646;2022-10-16T06:36:05;1.37;;;1.23;;
15077;SDS011;7638;49.760;8.646;2022-10-16T06:38:32;2.13;;;1.70;;
15077;SDS011;7638;49.760;8.646;2022-10-16T06:40:58;1.80;;;1.30;;
15077;SDS011;7638;49.760;8.646;2022-10-16T06:43:24;3.83;;;1.50;;
15077;SDS011;7638;49.760;8.646;2022-10-16T06:45:51;2.13;;;1.40;;
15077;SDS011;7638;49.760;8.646;2022-10-16T06:48:17;2.57;;;1.10;;
15077;SDS011;7638;49.760;8.646;2022-10-16T06:50:43;4.47;;;1.40;;
15077;SDS011;7638;49.760;8.646;2022-10-16T06:53:09;5.37;;;1.23;;
15077;SDS011;7638;49.760;8.646;2022-10-16T06:55:35;5.70;;;1.50;;
15077;SDS011;7638;49.760;8.646;2022-10-16T06:58:01;2.87;;;1.60;;
15077;SDS011;7638;49.760;8.646;2022-10-16T07:00:27;2.57;;;1.37;;
15077;SDS011;7638;49.760;8.646;2022-10-16T07:02:53;3.30;;;1.30;;
15077;SDS011;7638;49.760;8.646;2022-10-16T07:05:19;1.77;;;0.83;;
15077;SDS011;7638;49.760;8.646;2022-10-16T07:07:45;1.30;;;1.20;;
15077;SDS011;7638;49.760;8.646;2022-10-16T07:10:11;3.13;;;1.13;;
15077;SDS011;7638;49.760;8.646;2022-10-16T07:12:37;0.87;;;0.80;;
15077;SDS011;7638;49.760;8.646;2022-10-16T07:15:03;2.13;;;1.20;;
15077;SDS011;7638;49.760;8.646;2022-10-16T07:17:29;3.80;;;1.70;;
15077;SDS011;7638;49.760;8.646;2022-10-16T07:19:55;3.20;;;1.20;;
15077;SDS011;7638;49.760;8.646;2022-10-16T07:22:21;5.60;;;1.27;;
15077;SDS011;7638;49.760;8.646;2022-10-16T07:24:47;4.30;;;1.17;;
15077;SDS011;7638;49.760;8.646;2022-10-16T07:27:13;3.50;;;1.00;;
15077;SDS011;7638;49.760;8.646;2022-10-16T07:29:40;1.50;;;1.30;;
15077;SDS011;7638;49.760;8.646;2022-10-16T07:32:11;3.43;;;1.33;;
15077;SDS011;7638;49.760;8.646;2022-10-16T07:34:37;1.90;;;1.10;;
15077;SDS011;7638;49.760;8.646;2022-10-16T07:37:03;1.20;;;1.10;;
15077;SDS011;7638;49.760;8.646;2022-10-16T07:39:29;2.77;;;1.70;;
15077;SDS011;7638;49.760;8.646;2022-10-16T07:41:55;1.30;;;1.20;;
15077;SDS011;7638;49.760;8.646;2022-10-16T07:44:21;0.97;;;0.90;;
15077;SDS011;7638;49.760;8.646;2022-10-16T07:46:47;1.20;;;1.10;;
15077;SDS011;7638;49.760;8.646;2022-10-16T07:49:13;1.30;;;1.20;;
15077;SDS011;7638;49.760;8.646;2022-10-16T07:51:39;4.60;;;1.40;;
15077;SDS011;7638;49.760;8.646;2022-10-16T07:54:05;6.37;;;1.43;;
15077;SDS011;7638;49.760;8.646;2022-10-16T07:56:31;4.47;;;1.17;;
15077;SDS011;7638;49.760;8.646;2022-10-16T07:58:57;1.87;;;1.40;;
15077;SDS011;7638;49.760;8.646;2022-10-16T08:01:23;2.53;;;1.20;;
15077;SDS011;7638;49.760;8.646;2022-10-16T08:03:50;2.67;;;1.10;;
15077;SDS011;7638;49.760;8.646;2022-10-16T08:06:17;3.07;;;1.40;;
15077;SDS011;7638;49.760;8.646;2022-10-16T08:08:43;1.87;;;1.00;;
15077;SDS011;7638;49.760;8.646;2022-10-16T08:11:09;2.60;;;1.33;;
15077;SDS011;7638;49.760;8.646;2022-10-16T08:13:35;1.17;;;0.90;;
15077;SDS011;7638;49.760;8.646;2022-10-16T08:16:01;3.37;;;1.00;;
15077;SDS011;7638;49.760;8.646;2022-10-16T08:18:32;2.03;;;1.10;;
15077;SDS011;7638;49.760;8.646;2022-10-16T08:20:58;1.97;;;1.17;;
15077;SDS011;7638;49.760;8.646;2022-10-16T08:23:25;7.83;;;1.60;;
15077;SDS011;7638;49.760;8.646;2022-10-16T08:25:51;1.93;;;0.93;;
15077;SDS011;7638;49.760;8.646;2022-10-16T08:28:18;1.30;;;1.20;;
15077;SDS011;7638;49.760;8.646;2022-10-16T08:30:44;1.43;;;1.20;;
15077;SDS011;7638;49.760;8.646;2022-10-16T08:33:11;1.93;;;1.20;;
15077;SDS011;7638;49.760;8.646;2022-10-16T08:35:37;2.67;;;1.77;;
15077;SDS011;7638;49.760;8.646;2022-10-16T08:38:06;11.77;;;1.60;;
15077;SDS011;7638;49.760;8.646;2022-10-16T08:40:33;2.17;;;1.20;;
15077;SDS011;7638;49.760;8.646;2022-10-16T08:50:36;3.70;;;1.53;;
15077;SDS011;7638;49.760;8.646;2022-10-16T08:53:03;2.80;;;1.63;;
15077;SDS011;7638;49.760;8.646;2022-10-16T08:57:57;3.33;;;1.70;;
15077;SDS011;7638;49.760;8.646;2022-10-16T09:00:23;3.23;;;1.73;;
15077;SDS011;7638;49.760;8.646;2022-10-16T09:03:32;3.17;;;1.50;;
15077;SDS011;7638;49.760;8.646;2022-10-16T09:13:18;2.13;;;1.73;;
15077;SDS011;7638;49.760;8.646;2022-10-16T09:15:51;1.37;;;1.27;;
15077;SDS011;7638;49.760;8.646;2022-10-16T09:23:30;1.40;;;1.30;;
15077;SDS011;7638;49.760;8.646;2022-10-16T09:25:57;1.30;;;1.20;;
15077;SDS011;7638;49.760;8.646;2022-10-16T09:28:24;1.20;;;1.10;;
15077;SDS011;7638;49.760;8.646;2022-10-16T09:30:50;1.63;;;1.30;;
15077;SDS011;7638;49.760;8.646;2022-10-16T09:33:18;2.63;;;1.43;;
15077;SDS011;7638;49.760;8.646;2022-10-16T09:35:45;1.93;;;1.83;;
15077;SDS011;7638;49.760;8.646;2022-10-16T09:38:22;4.40;;;1.60;;
15077;SDS011;7638;49.760;8.646;2022-10-16T09:40:48;3.10;;;1.43;;
15077;SDS011;7638;49.760;8.646;2022-10-16T09:45:53;5.07;;;2.03;;
15077;SDS011;7638;49.760;8.646;2022-10-16T09:48:20;2.57;;;1.57;;
15077;SDS011;7638;49.760;8.646;2022-10-16T09:50:55;1.83;;;1.23;;
15077;SDS011;7638;49.760;8.646;2022-10-16T09:53:21;1.57;;;1.30;;
15077;SDS011;7638;49.760;8.646;2022-10-16T09:55:51;4.60;;;1.40;;
15077;SDS011;7638;49.760;8.646;2022-10-16T09:58:18;5.20;;;2.10;;
15077;SDS011;7638;49.760;8.646;2022-10-16T10:03:36;1.77;;;1.50;;
15077;SDS011;7638;49.760;8.646;2022-10-16T10:06:13;4.00;;;1.43;;
15077;SDS011;7638;49.760;8.646;2022-10-16T10:08:41;4.03;;;0.90;;
15077;SDS011;7638;49.760;8.646;2022-10-16T10:11:07;1.30;;;1.10;;
15077;SDS011;7638;49.760;8.646;2022-10-16T10:13:33;1.10;;;1.00;;
15077;SDS011;7638;49.760;8.646;2022-10-16T10:15:59;0.70;;;0.70;;
15077;SDS011;7638;49.760;8.646;2022-10-16T10:18:25;1.40;;;1.20;;
15077;SDS011;7638;49.760;8.646;2022-10-16T10:20:58;1.37;;;1.27;;
15077;SDS011;7638;49.760;8.646;2022-10-16T10:23:25;1.60;;;1.13;;
15077;SDS011;7638;49.760;8.646;2022-10-16T10:36:36;1.27;;;1.17;;
15077;SDS011;7638;49.760;8.646;2022-10-16T10:39:11;2.73;;;1.43;;
15077;SDS011;7638;49.760;8.646;2022-10-16T10:49:37;1.43;;;1.20;;
15077;SDS011;7638;49.760;8.646;2022-10-16T11:00:06;2.13;;;1.00;;
15077;SDS011;7638;49.760;8.646;2022-10-16T11:05:28;2.20;;;1.43;;
15077;SDS011;7638;49.760;8.646;2022-10-16T11:08:00;2.80;;;1.63;;
15077;SDS011;7638;49.760;8.646;2022-10-16T11:11:08;1.83;;;1.23;;
15077;SDS011;7638;49.760;8.646;2022-10-16T11:13:24;2.17;;;1.10;;
15077;SDS011;7638;49.760;8.646;2022-10-16T11:15:52;1.90;;;1.07;;
15077;SDS011;7638;49.760;8.646;2022-10-16T11:18:21;3.40;;;1.50;;
15077;SDS011;7638;49.760;8.646;2022-10-16T11:20:53;1.83;;;1.27;;
15077;SDS011;7638;49.760;8.646;2022-10-16T11:25:49;2.53;;;1.37;;
15077;SDS011;7638;49.760;8.646;2022-10-16T11:28:29;1.33;;;1.23;;
15077;SDS011;7638;49.760;8.646;2022-10-16T11:31:07;1.40;;;1.30;;
15077;SDS011;7638;49.760;8.646;2022-10-16T11:36:16;1.20;;;1.10;;
15077;SDS011;7638;49.760;8.646;2022-10-16T11:44:09;3.20;;;1.50;;
15077;SDS011;7638;49.760;8.646;2022-10-16T11:46:38;2.90;;;1.70;;
15077;SDS011;7638;49.760;8.646;2022-10-16T11:49:08;2.77;;;1.47;;
15077;SDS011;7638;49.760;8.646;2022-10-16T11:51:38;4.93;;;1.77;;
15077;SDS011;7638;49.760;8.646;2022-10-16T11:56:36;4.33;;;1.50;;
15077;SDS011;7638;49.760;8.646;2022-10-16T11:59:04;1.97;;;1.77;;
15077;SDS011;7638;49.760;8.646;2022-10-16T12:06:57;5.17;;;1.73;;
15077;SDS011;7638;49.760;8.646;2022-10-16T12:09:28;2.20;;;1.53;;
15077;SDS011;7638;49.760;8.646;2022-10-16T12:11:55;2.03;;;1.30;;
15077;SDS011;7638;49.760;8.646;2022-10-16T12:14:22;4.70;;;1.50;;
15077;SDS011;7638;49.760;8.646;2022-10-16T12:17:00;6.30;;;1.43;;
15077;SDS011;7638;49.760;8.646;2022-10-16T12:19:27;1.60;;;1.27;;
15077;SDS011;7638;49.760;8.646;2022-10-16T12:21:55;4.80;;;1.50;;
15077;SDS011;7638;49.760;8.646;2022-10-16T12:24:43;1.73;;;1.10;;
15077;SDS011;7638;49.760;8.646;2022-10-16T12:27:28;1.80;;;1.60;;
15077;SDS011;7638;49.760;8.646;2022-10-16T12:29:55;2.53;;;1.93;;
15077;SDS011;7638;49.760;8.646;2022-10-16T12:34:48;3.00;;;1.93;;
15077;SDS011;7638;49.760;8.646;2022-10-16T12:37:19;1.57;;;1.47;;
15077;SDS011;7638;49.760;8.646;2022-10-16T12:39:47;5.63;;;1.67;;
15077;SDS011;7638;49.760;8.646;2022-10-16T12:42:20;2.07;;;1.67;;
15077;SDS011;7638;49.760;8.646;2022-10-16T12:44:46;2.03;;;1.70;;
15077;SDS011;7638;49.760;8.646;2022-10-16T12:49:57;3.23;;;1.93;;
15077;SDS011;7638;49.760;8.646;2022-10-16T12:52:24;2.70;;;1.70;;
15077;SDS011;7638;49.760;8.646;2022-10-16T12:54:51;3.70;;;1.50;;
15077;SDS011;7638;49.760;8.646;2022-10-16T13:03:23;3.63;;;1.60;;
15077;SDS011;7638;49.760;8.646;2022-10-16T13:05:33;4.40;;;1.50;;
15077;SDS011;7638;49.760;8.646;2022-10-16T13:10:40;2.50;;;1.50;;
15077;SDS011;7638;49.760;8.646;2022-10-16T13:13:27;4.60;;;1.63;;
15077;SDS011;7638;49.760;8.646;2022-10-16T13:16:18;3.97;;;1.87;;
15077;SDS011;7638;49.760;8.646;2022-10-16T13:18:50;4.23;;;2.47;;
15077;SDS011;7638;49.760;8.646;2022-10-16T13:26:24;6.43;;;1.83;;
15077;SDS011;7638;49.760;8.646;2022-10-16T13:28:52;5.57;;;1.83;;
15077;SDS011;7638;49.760;8.646;2022-10-16T13:31:20;3.00;;;1.47;;
15077;SDS011;7638;49.760;8.646;2022-10-16T13:33:47;2.90;;;1.27;;
15077;SDS011;7638;49.760;8.646;2022-10-16T13:36:19;4.40;;;1.40;;
15077;SDS011;7638;49.760;8.646;2022-10-16T13:38:45;4.13;;;2.20;;
15077;SDS011;7638;49.760;8.646;2022-10-16T13:41:16;1.73;;;1.50;;
15077;SDS011;7638;49.760;8.646;2022-10-16T13:46:12;6.20;;;1.70;;
15077;SDS011;7638;49.760;8.646;2022-10-16T13:48:38;5.87;;;1.80;;
15077;SDS011;7638;49.760;8.646;2022-10-16T13:51:17;2.53;;;1.53;;
15077;SDS011;7638;49.760;8.646;2022-10-16T13:53:44;26.27;;;3.63;;
15077;SDS011;7638;49.760;8.646;2022-10-16T13:56:11;5.77;;;1.63;;
15077;SDS011;7638;49.760;8.646;2022-10-16T13:58:37;3.93;;;1.40;;
15077;SDS011;7638;49.760;8.646;2022-10-16T14:04:07;2.30;;;1.73;;
15077;SDS011;7638;49.760;8.646;2022-10-16T14:06:33;2.07;;;1.30;;
15077;SDS011;7638;49.760;8.646;2022-10-16T14:09:01;1.70;;;1.57;;
15077;SDS011;7638;49.760;8.646;2022-10-16T14:11:30;3.63;;;1.83;;
15077;SDS011;7638;49.760;8.646;2022-10-16T14:13:56;5.17;;;2.00;;
15077;SDS011;7638;49.760;8.646;2022-10-16T14:16:27;5.93;;;2.00;;
15077;SDS011;7638;49.760;8.646;2022-10-16T14:18:59;3.30;;;2.27;;
15077;SDS011;7638;49.760;8.646;2022-10-16T14:21:25;4.20;;;1.63;;
15077;SDS011;7638;49.760;8.646;2022-10-16T14:23:52;3.70;;;1.70;;
15077;SDS011;7638;49.760;8.646;2022-10-16T14:26:20;13.50;;;2.30;;
15077;SDS011;7638;49.760;8.646;2022-10-16T14:28:47;1.90;;;1.70;;
15077;SDS011;7638;49.760;8.646;2022-10-16T14:33:45;4.30;;;1.90;;
15077;SDS011;7638;49.760;8.646;2022-10-16T14:36:12;7.53;;;2.80;;
15077;SDS011;7638;49.760;8.646;2022-10-16T14:38:39;2.00;;;1.70;;
15077;SDS011;7638;49.760;8.646;2022-10-16T14:41:06;3.77;;;1.60;;
15077;SDS011;7638;49.760;8.646;2022-10-16T14:45:59;4.03;;;1.40;;
15077;SDS011;7638;49.760;8.646;2022-10-16T14:48:25;4.77;;;1.53;;
15077;SDS011;7638;49.760;8.646;2022-10-16T14:50:51;2.63;;;1.63;;
15077;SDS011;7638;49.760;8.646;2022-10-16T14:53:17;2.47;;;1.57;;
15077;SDS011;7638;49.760;8.646;2022-10-16T14:55:43;9.10;;;1.57;;
15077;SDS011;7638;49.760;8.646;2022-10-16T14:58:19;6.03;;;1.60;;
15077;SDS011;7638;49.760;8.646;2022-10-16T15:03:33;4.50;;;2.20;;
15077;SDS011;7638;49.760;8.646;2022-10-16T15:05:59;2.43;;;1.70;;
15077;SDS011;7638;49.760;8.646;2022-10-16T15:08:25;22.00;;;1.90;;
15077;SDS011;7638;49.760;8.646;2022-10-16T15:10:51;1.60;;;1.50;;
15077;SDS011;7638;49.760;8.646;2022-10-16T15:13:17;5.87;;;1.90;;
15077;SDS011;7638;49.760;8.646;2022-10-16T15:15:43;2.03;;;1.80;;
15077;SDS011;7638;49.760;8.646;2022-10-16T15:18:10;3.07;;;1.63;;
15077;SDS011;7638;49.760;8.646;2022-10-16T15:20:37;4.93;;;2.97;;
15077;SDS011;7638;49.760;8.646;2022-10-16T15:23:10;3.27;;;2.03;;
15077;SDS011;7638;49.760;8.646;2022-10-16T15:25:41;2.17;;;1.53;;
15077;SDS011;7638;49.760;8.646;2022-10-16T15:28:07;2.57;;;1.70;;
15077;SDS011;7638;49.760;8.646;2022-10-16T15:30:34;6.00;;;2.03;;
15077;SDS011;7638;49.760;8.646;2022-10-16T15:33:01;8.07;;;2.50;;
15077;SDS011;7638;49.760;8.646;2022-10-16T15:35:27;4.23;;;2.00;;
15077;SDS011;7638;49.760;8.646;2022-10-16T15:37:53;4.37;;;1.73;;
15077;SDS011;7638;49.760;8.646;2022-10-16T15:40:19;8.27;;;2.07;;
15077;SDS011;7638;49.760;8.646;2022-10-16T15:42:46;4.73;;;2.10;;
15077;SDS011;7638;49.760;8.646;2022-10-16T15:45:12;1.83;;;1.57;;
15077;SDS011;7638;49.760;8.646;2022-10-16T15:47:38;4.50;;;1.70;;
15077;SDS011;7638;49.760;8.646;2022-10-16T15:50:06;2.57;;;1.70;;
15077;SDS011;7638;49.760;8.646;2022-10-16T15:52:32;4.60;;;2.23;;
15077;SDS011;7638;49.760;8.646;2022-10-16T15:54:58;8.83;;;2.10;;
15077;SDS011;7638;49.760;8.646;2022-10-16T15:57:24;6.43;;;1.97;;
15077;SDS011;7638;49.760;8.646;2022-10-16T15:59:51;4.07;;;1.90;;
15077;SDS011;7638;49.760;8.646;2022-10-16T16:02:17;5.10;;;1.93;;
15077;SDS011;7638;49.760;8.646;2022-10-16T16:04:43;4.37;;;1.77;;
15077;SDS011;7638;49.760;8.646;2022-10-16T16:07:09;5.73;;;2.30;;
15077;SDS011;7638;49.760;8.646;2022-10-16T16:09:36;3.10;;;1.90;;
15077;SDS011;7638;49.760;8.646;2022-10-16T16:12:02;1.60;;;1.33;;
15077;SDS011;7638;49.760;8.646;2022-10-16T16:14:28;3.10;;;1.90;;
15077;SDS011;7638;49.760;8.646;2022-10-16T16:16:55;3.17;;;1.90;;
15077;SDS011;7638;49.760;8.646;2022-10-16T16:19:21;2.83;;;1.60;;
15077;SDS011;7638;49.760;8.646;2022-10-16T16:21:48;3.07;;;1.73;;
15077;SDS011;7638;49.760;8.646;2022-10-16T16:24:14;3.83;;;1.80;;
15077;SDS011;7638;49.760;8.646;2022-10-16T16:26:40;4.60;;;1.70;;
15077;SDS011;7638;49.760;8.646;2022-10-16T16:29:08;3.30;;;2.07;;
15077;SDS011;7638;49.760;8.646;2022-10-16T16:31:37;3.87;;;1.83;;
15077;SDS011;7638;49.760;8.646;2022-10-16T16:34:03;5.53;;;1.63;;
15077;SDS011;7638;49.760;8.646;2022-10-16T16:36:29;3.27;;;1.77;;
15077;SDS011;7638;49.760;8.646;2022-10-16T16:38:56;2.57;;;1.87;;
15077;SDS011;7638;49.760;8.646;2022-10-16T16:41:23;4.23;;;1.40;;
15077;SDS011;7638;49.760;8.646;2022-10-16T16:43:50;2.97;;;2.00;;
15077;SDS011;7638;49.760;8.646;2022-10-16T16:46:17;2.07;;;1.37;;
15077;SDS011;7638;49.760;8.646;2022-10-16T16:48:43;11.00;;;1.87;;
15077;SDS011;7638;49.760;8.646;2022-10-16T16:51:11;2.10;;;1.57;;
15077;SDS011;7638;49.760;8.646;2022-10-16T16:53:41;4.27;;;1.90;;
15077;SDS011;7638;49.760;8.646;2022-10-16T16:56:08;4.97;;;1.80;;
15077;SDS011;7638;49.760;8.646;2022-10-16T16:58:34;2.83;;;1.87;;
15077;SDS011;7638;49.760;8.646;2022-10-16T17:01:01;4.73;;;1.80;;
15077;SDS011;7638;49.760;8.646;2022-10-16T17:03:33;3.63;;;1.33;;
15077;SDS011;7638;49.760;8.646;2022-10-16T17:08:26;7.50;;;1.83;;